createdAt,value
2018-10-12T00:01:11.541Z,1008.41
2018-10-12T00:06:07.729Z,1008.51
2018-10-12T00:11:04.331Z,1008.49
2018-10-12T00:16:01.348Z,1008.47
2018-10-12T00:20:57.914Z,1008.47
2018-10-12T00:25:53.514Z,1008.49
2018-10-12T00:30:49.144Z,1008.53
2018-10-12T00:35:45.153Z,1008.57
2018-10-12T00:40:41.055Z,1008.58
2018-10-12T00:45:36.835Z,1008.63
2018-10-12T00:50:32.457Z,1008.55
2018-10-12T00:55:28.662Z,1008.50
2018-10-12T01:00:24.440Z,1008.59
2018-10-12T01:05:20.166Z,1008.59
2018-10-12T01:10:16.396Z,1008.55
2018-10-12T01:15:12.614Z,1008.57
2018-10-12T01:20:09.468Z,1008.33
2018-10-12T01:25:05.481Z,1008.40
2018-10-12T01:30:01.378Z,1008.45
2018-10-12T01:34:57.549Z,1008.51
2018-10-12T01:39:53.680Z,1008.53
2018-10-12T01:44:49.858Z,1008.53
2018-10-12T01:49:46.425Z,1008.74
2018-10-12T01:54:43.554Z,1008.72
2018-10-12T01:59:38.875Z,1008.69
2018-10-12T02:04:34.746Z,1008.63
2018-10-12T02:09:30.509Z,1008.64
2018-10-12T02:14:26.059Z,1008.70
2018-10-12T02:19:22.022Z,1008.76
2018-10-12T02:24:17.918Z,1008.69
2018-10-12T02:29:13.810Z,1008.62
2018-10-12T02:34:09.776Z,1008.68
2018-10-12T02:39:07.206Z,1008.70
2018-10-12T02:44:03.756Z,1008.83
2018-10-12T02:49:00.085Z,1008.72
2018-10-12T02:53:55.634Z,1008.77
2018-10-12T02:58:51.463Z,1008.94
2018-10-12T03:03:47.086Z,1009.02
2018-10-12T03:08:42.692Z,1009.02
2018-10-12T03:13:38.526Z,1009.11
2018-10-12T03:18:34.432Z,1009.27
2018-10-12T03:23:30.951Z,1009.24
2018-10-12T03:28:27.150Z,1009.37
2018-10-12T03:33:24.038Z,1009.38
2018-10-12T03:38:19.895Z,1009.63
2018-10-12T03:43:15.727Z,1009.59
2018-10-12T03:48:11.600Z,1009.67
2018-10-12T03:53:08.506Z,1009.72
2018-10-12T03:58:06.003Z,1009.78
2018-10-12T04:03:02.697Z,1009.85
2018-10-12T04:07:58.202Z,1009.80
2018-10-12T04:12:54.165Z,1009.96
2018-10-12T04:17:50.251Z,1010.05
2018-10-12T04:22:47.088Z,1010.10
2018-10-12T04:27:42.723Z,1010.34
2018-10-12T04:32:40.038Z,1010.39
2018-10-12T04:37:35.621Z,1010.22
2018-10-12T04:42:31.393Z,1010.16
2018-10-12T04:47:28.735Z,1010.34
2018-10-12T04:52:24.330Z,1010.44
2018-10-12T04:57:20.258Z,1010.49
2018-10-12T05:02:16.790Z,1010.46
2018-10-12T05:07:12.589Z,1010.56
2018-10-12T05:12:08.580Z,1010.73
2018-10-12T05:17:05.300Z,1010.67
2018-10-12T05:22:02.186Z,1010.48
2018-10-12T05:26:57.788Z,1010.55
2018-10-12T05:31:54.080Z,1010.83
2018-10-12T05:36:49.684Z,1010.85
2018-10-12T05:41:45.800Z,1011.00
2018-10-12T05:46:42.787Z,1011.15
2018-10-12T05:51:39.347Z,1011.17
2018-10-12T05:56:36.076Z,1011.27
2018-10-12T06:01:32.400Z,1011.29
2018-10-12T06:06:29.104Z,1011.27
2018-10-12T06:11:25.814Z,1011.44
2018-10-12T06:16:21.969Z,1011.72
2018-10-12T06:21:17.922Z,1011.80
2018-10-12T06:26:13.834Z,1011.74
2018-10-12T06:31:09.652Z,1011.87
2018-10-12T06:36:05.642Z,1011.98
2018-10-12T06:41:01.819Z,1012.11
2018-10-12T06:45:57.702Z,1012.14
2018-10-12T06:50:53.776Z,1012.13
2018-10-12T06:55:49.839Z,1012.18
2018-10-12T07:00:45.843Z,1012.20
2018-10-12T07:05:41.897Z,1012.35
2018-10-12T07:10:37.863Z,1012.47
2018-10-12T07:15:34.667Z,1012.52
2018-10-12T07:20:30.840Z,1012.49
2018-10-12T07:25:27.778Z,1012.54
2018-10-12T07:30:24.420Z,1012.63
2018-10-12T07:35:21.481Z,1012.65
2018-10-12T07:40:16.789Z,1012.77
2018-10-12T07:45:12.752Z,1012.78
2018-10-12T07:50:08.836Z,1012.90
2018-10-12T07:55:04.897Z,1012.94
2018-10-12T08:00:01.718Z,1012.91
2018-10-12T08:04:57.470Z,1013.01
2018-10-12T08:09:53.567Z,1012.99
2018-10-12T08:14:50.454Z,1013.19
2018-10-12T08:19:46.342Z,1013.23
2018-10-12T08:24:42.206Z,1013.18
2018-10-12T08:29:38.188Z,1013.26
2018-10-12T08:34:35.145Z,1013.29
2018-10-12T08:39:31.261Z,1013.33
2018-10-12T08:44:27.293Z,1013.37
2018-10-12T08:49:23.643Z,1013.39
2018-10-12T08:54:19.714Z,1013.54
2018-10-12T08:59:16.633Z,1013.54
2018-10-12T09:04:14.407Z,1013.73
2018-10-12T09:09:10.233Z,1013.72
2018-10-12T09:14:06.340Z,1013.77
2018-10-12T09:19:02.376Z,1013.82
2018-10-12T09:23:58.584Z,1013.82
2018-10-12T09:28:54.912Z,1013.87
2018-10-12T09:33:51.748Z,1013.76
2018-10-12T09:38:48.041Z,1013.80
2018-10-12T09:43:44.126Z,1013.90
2018-10-12T09:48:40.133Z,1013.88
2018-10-12T09:53:36.438Z,1013.91
2018-10-12T09:58:33.630Z,1013.83
2018-10-12T10:03:29.421Z,1013.75
2018-10-12T10:08:25.427Z,1013.70
2018-10-12T10:13:21.335Z,1013.72
2018-10-12T10:18:17.690Z,1013.71
2018-10-12T10:23:13.670Z,1013.76
2018-10-12T10:28:09.683Z,1013.71
2018-10-12T10:33:06.954Z,1013.56
2018-10-12T10:38:02.889Z,1013.57
2018-10-12T10:43:00.108Z,1013.50
2018-10-12T10:47:56.961Z,1013.49
2018-10-12T10:52:53.653Z,1013.39
2018-10-12T10:57:50.724Z,1013.51
2018-10-12T11:02:47.168Z,1013.40
2018-10-12T11:07:44.201Z,1013.48
2018-10-12T11:12:40.529Z,1013.38
2018-10-12T11:17:36.467Z,1013.46
2018-10-12T11:22:33.686Z,1013.44
2018-10-12T11:27:29.552Z,1013.31
2018-10-12T11:32:25.174Z,1013.37
2018-10-12T11:37:20.922Z,1013.40
2018-10-12T11:42:17.562Z,1013.33
2018-10-12T11:47:14.264Z,1013.33
2018-10-12T11:52:10.095Z,1013.31
2018-10-12T11:57:06.931Z,1013.31
2018-10-12T12:02:02.598Z,1013.28
2018-10-12T12:07:00.129Z,1013.34
2018-10-12T12:11:55.866Z,1013.35
2018-10-12T12:16:51.636Z,1013.29
2018-10-12T12:21:47.609Z,1013.27
2018-10-12T12:26:43.544Z,1013.37
2018-10-12T12:31:39.586Z,1013.35
2018-10-12T12:36:36.591Z,1013.27
2018-10-12T12:41:32.148Z,1013.29
2018-10-12T12:46:29.415Z,1013.35
2018-10-12T12:51:25.997Z,1013.35
2018-10-12T12:56:21.719Z,1013.28
2018-10-12T13:01:17.751Z,1013.22
2018-10-12T13:06:13.875Z,1013.32
2018-10-12T13:11:09.959Z,1013.28
2018-10-12T13:16:06.942Z,1013.33
2018-10-12T13:21:02.771Z,1013.27
2018-10-12T13:25:58.736Z,1013.32
2018-10-12T13:30:54.794Z,1013.35
2018-10-12T13:35:50.882Z,1013.29
2018-10-12T13:40:47.992Z,1013.35
2018-10-12T13:45:43.882Z,1013.31
2018-10-12T13:50:40.795Z,1013.35
2018-10-12T13:55:36.460Z,1013.39
2018-10-12T14:00:32.425Z,1013.37
2018-10-12T14:05:28.311Z,1013.41
2018-10-12T14:10:25.272Z,1013.42
2018-10-12T14:15:21.008Z,1013.40
2018-10-12T14:20:17.274Z,1013.39
2018-10-12T14:25:13.198Z,1013.36
2018-10-12T14:30:09.389Z,1013.39
2018-10-12T14:35:05.164Z,1013.36
2018-10-12T14:40:02.236Z,1013.30
2018-10-12T14:44:58.257Z,1013.23
2018-10-12T14:49:55.231Z,1013.30
2018-10-12T14:54:51.055Z,1013.26
2018-10-12T14:59:46.973Z,1013.17
2018-10-12T15:04:43.025Z,1013.12
2018-10-12T15:09:39.167Z,1013.21
2018-10-12T15:14:35.159Z,1013.14
2018-10-12T15:19:32.171Z,1013.10
2018-10-12T15:24:28.995Z,1013.07
2018-10-12T15:29:24.674Z,1013.17
2018-10-12T15:34:20.618Z,1013.08
2018-10-12T15:39:16.607Z,1013.17
2018-10-12T15:44:12.633Z,1013.13
2018-10-12T15:49:08.636Z,1013.09
2018-10-12T15:54:04.600Z,1013.11
2018-10-12T15:59:00.696Z,1013.17
2018-10-12T16:03:56.573Z,1013.15
2018-10-12T16:08:52.559Z,1013.15
2018-10-12T16:13:48.883Z,1013.15
2018-10-12T16:18:44.649Z,1013.16
2018-10-12T16:23:40.828Z,1013.18
2018-10-12T16:28:36.703Z,1013.23
2018-10-12T16:33:32.608Z,1013.25
2018-10-12T16:38:28.525Z,1013.28
2018-10-12T16:43:24.520Z,1013.44
2018-10-12T16:48:20.288Z,1013.42
2018-10-12T16:53:16.595Z,1013.47
2018-10-12T16:58:12.461Z,1013.57
2018-10-12T17:03:08.146Z,1013.61
2018-10-12T17:08:04.217Z,1013.57
2018-10-12T17:13:01.067Z,1013.59
2018-10-12T17:17:56.542Z,1013.70
2018-10-12T17:22:53.308Z,1013.64
2018-10-12T17:27:49.929Z,1013.74
2018-10-12T17:32:46.143Z,1013.64
2018-10-12T17:37:43.043Z,1013.71
2018-10-12T17:42:38.757Z,1013.72
2018-10-12T17:47:35.579Z,1013.77
2018-10-12T17:52:31.252Z,1013.70
2018-10-12T17:57:26.953Z,1013.94
2018-10-12T18:02:22.941Z,1013.86
2018-10-12T18:07:20.449Z,1013.89
2018-10-12T18:12:16.056Z,1013.96
2018-10-12T18:17:11.958Z,1013.93
2018-10-12T18:22:08.026Z,1013.85
2018-10-12T18:27:04.873Z,1013.82
2018-10-12T18:32:00.449Z,1013.94
2018-10-12T18:36:56.279Z,1013.89
2018-10-12T18:41:52.121Z,1013.88
2018-10-12T18:46:47.830Z,1013.91
2018-10-12T18:51:44.905Z,1013.95
2018-10-12T18:56:41.652Z,1014.03
2018-10-12T19:01:37.760Z,1013.99
2018-10-12T19:06:34.977Z,1013.92
2018-10-12T19:11:30.429Z,1014.07
2018-10-12T19:16:27.255Z,1014.07
2018-10-12T19:21:23.664Z,1014.09
2018-10-12T19:26:19.232Z,1014.10
2018-10-12T19:31:15.701Z,1014.28
2018-10-12T19:36:11.496Z,1014.38
2018-10-12T19:41:08.615Z,1014.43
2018-10-12T19:46:03.972Z,1014.41
2018-10-12T19:51:00.083Z,1014.44
2018-10-12T19:55:55.907Z,1014.45
2018-10-12T20:00:51.768Z,1014.50
2018-10-12T20:05:48.411Z,1014.49
2018-10-12T20:10:44.106Z,1014.48
2018-10-12T20:15:39.864Z,1014.45
2018-10-12T20:20:35.678Z,1014.50
2018-10-12T20:25:31.685Z,1014.45
2018-10-12T20:30:27.495Z,1014.49
2018-10-12T20:35:23.165Z,1014.54
2018-10-12T20:40:18.914Z,1014.59
2018-10-12T20:45:14.668Z,1014.53
2018-10-12T20:50:10.838Z,1014.59
2018-10-12T20:55:06.743Z,1014.70
2018-10-12T21:00:02.507Z,1014.66
2018-10-12T21:04:58.462Z,1014.71
2018-10-12T21:09:54.329Z,1014.72
2018-10-12T21:14:49.873Z,1014.72
2018-10-12T21:19:46.909Z,1014.86
2018-10-12T21:24:42.529Z,1014.78
2018-10-12T21:29:39.581Z,1014.78
2018-10-12T21:34:35.370Z,1014.75
2018-10-12T21:39:32.212Z,1014.76
2018-10-12T21:44:27.876Z,1014.73
2018-10-12T21:49:23.857Z,1014.71
2018-10-12T21:54:20.668Z,1014.71
2018-10-12T21:59:16.320Z,1014.73
2018-10-12T22:04:13.439Z,1014.78
2018-10-12T22:09:09.098Z,1014.72
2018-10-12T22:14:06.019Z,1014.67
2018-10-12T22:19:01.663Z,1014.69
2018-10-12T22:23:57.412Z,1014.67
2018-10-12T22:28:53.250Z,1014.63
2018-10-12T22:33:49.676Z,1014.55
2018-10-12T22:38:45.749Z,1014.51
2018-10-12T22:43:41.500Z,1014.56
2018-10-12T22:48:37.242Z,1014.49
2018-10-12T22:53:33.053Z,1014.43
2018-10-12T22:58:30.217Z,1014.48
2018-10-12T23:03:26.951Z,1014.44
2018-10-12T23:08:22.821Z,1014.47
2018-10-12T23:13:19.805Z,1014.42
2018-10-12T23:18:15.313Z,1014.39
2018-10-12T23:23:11.052Z,1014.43
2018-10-12T23:28:06.825Z,1014.35
2018-10-12T23:33:02.616Z,1014.32
2018-10-12T23:37:58.721Z,1014.24
2018-10-12T23:42:55.678Z,1014.17
2018-10-12T23:47:51.297Z,1014.23
2018-10-12T23:52:48.018Z,1014.24
2018-10-12T23:57:43.969Z,1014.23
